Time;durP1;ratioP1;P1;durP2;ratioP2;P2;SDS_P1;SDS_P2;PMS_P1;PMS_P2;Temp;Humidity;BMP_temperature;BMP_pressure;BME280_temperature;BME280_humidity;BME280_pressure;Samples;Min_cycle;Max_cycle;Signal;HPM_P1;HPM_P2
2023/01/22 05:01:07;;;;;;;31.10;16.73;;;1.40;99.90;;;;;;5692662;23;20550;-76
2023/01/22 05:03:34;;;;;;;31.70;15.63;;;1.40;99.90;;;;;;4987573;28;20468;-76
2023/01/22 05:06:03;;;;;;;29.03;16.87;;;1.30;99.90;;;;;;4987264;28;20459;-76
2023/01/22 05:08:30;;;;;;;32.37;17.10;;;1.20;99.90;;;;;;4988108;28;20455;-77
2023/01/22 05:11:00;;;;;;;33.50;16.20;;;1.20;99.90;;;;;;4988010;28;20471;-77
2023/01/22 05:13:27;;;;;;;30.90;17.60;;;1.10;99.90;;;;;;4987989;28;20432;-75
2023/01/22 05:15:54;;;;;;;33.27;17.80;;;1.10;99.90;;;;;;4987326;28;20973;-76
2023/01/22 05:18:23;;;;;;;28.37;16.20;;;1.10;99.90;;;;;;4987270;28;20514;-76
2023/01/22 05:20:49;;;;;;;27.13;16.47;;;1.00;99.90;;;;;;4987499;28;20479;-76
2023/01/22 05:23:16;;;;;;;35.20;18.13;;;1.00;99.90;;;;;;4986999;28;20481;-75
2023/01/22 05:25:48;;;;;;;32.70;17.10;;;1.00;99.90;;;;;;4987016;28;20952;-74
2023/01/22 05:28:14;;;;;;;32.40;16.97;;;0.90;99.90;;;;;;4986268;28;20489;-75
2023/01/22 05:30:41;;;;;;;28.50;14.97;;;0.80;99.90;;;;;;4986885;28;20482;-75
2023/01/22 05:33:08;;;;;;;34.90;18.00;;;0.80;99.90;;;;;;4985746;28;20463;-75
2023/01/22 05:35:36;;;;;;;33.67;18.00;;;0.80;99.90;;;;;;4987142;28;20440;-73
2023/01/22 05:38:03;;;;;;;36.87;18.43;;;0.80;99.90;;;;;;4986225;28;20482;-76
2023/01/22 05:40:29;;;;;;;31.73;17.40;;;0.80;99.90;;;;;;4987820;28;20455;-74
2023/01/22 05:42:56;;;;;;;35.77;18.10;;;0.80;99.90;;;;;;4987946;28;20499;-75
2023/01/22 05:45:23;;;;;;;34.67;19.10;;;0.70;99.90;;;;;;4987660;28;20503;-76
2023/01/22 05:47:53;;;;;;;34.87;18.57;;;0.80;99.90;;;;;;4986944;28;20462;-77
2023/01/22 05:50:19;;;;;;;36.80;20.23;;;0.70;99.90;;;;;;4986938;28;20939;-75
2023/01/22 05:52:48;;;;;;;35.80;19.40;;;0.80;99.90;;;;;;4987012;28;20826;-75
2023/01/22 05:55:15;;;;;;;38.53;20.33;;;0.80;99.90;;;;;;4986791;28;20459;-75
2023/01/22 05:57:41;;;;;;;37.83;18.93;;;0.80;99.90;;;;;;4985991;28;20455;-74
2023/01/22 06:00:10;;;;;;;35.83;18.70;;;0.80;99.90;;;;;;4986870;28;20459;-75
2023/01/22 06:02:36;;;;;;;38.60;18.40;;;0.80;99.90;;;;;;4986312;28;20499;-76
2023/01/22 06:05:03;;;;;;;36.53;19.13;;;0.80;99.90;;;;;;4987070;28;20461;-75
2023/01/22 06:07:31;;;;;;;39.30;20.23;;;0.80;99.90;;;;;;4986593;28;20456;-77
2023/01/22 06:09:59;;;;;;;34.83;18.13;;;0.80;99.90;;;;;;4987477;28;20466;-77
2023/01/22 06:12:26;;;;;;;36.47;19.00;;;0.80;99.90;;;;;;4986784;28;20479;-77
2023/01/22 06:14:53;;;;;;;36.70;18.50;;;0.70;99.90;;;;;;4987454;28;20463;-76
2023/01/22 06:17:20;;;;;;;36.43;19.00;;;0.70;99.90;;;;;;4986122;28;20469;-77
2023/01/22 06:19:46;;;;;;;34.00;18.67;;;0.70;99.90;;;;;;4987155;28;20466;-76
2023/01/22 06:22:13;;;;;;;39.97;19.30;;;0.60;99.90;;;;;;4986937;28;20503;-77
2023/01/22 06:24:40;;;;;;;43.60;19.73;;;0.60;99.90;;;;;;4986890;28;20452;-75
2023/01/22 06:27:08;;;;;;;38.77;18.30;;;0.60;99.90;;;;;;4986628;28;20459;-74
2023/01/22 06:29:35;;;;;;;36.77;18.80;;;0.70;99.90;;;;;;4986235;28;20463;-71
2023/01/22 06:32:02;;;;;;;34.60;18.43;;;0.70;99.90;;;;;;4986195;28;21164;-75
2023/01/22 06:34:29;;;;;;;34.67;17.47;;;0.80;99.90;;;;;;4986419;28;20466;-75
2023/01/22 06:36:56;;;;;;;33.30;18.60;;;0.80;99.90;;;;;;4985303;28;21337;-75
2023/01/22 06:39:22;;;;;;;41.13;20.20;;;0.80;99.90;;;;;;4985900;28;20965;-73
2023/01/22 06:41:49;;;;;;;36.67;20.57;;;0.90;99.90;;;;;;4986052;28;20507;-75
2023/01/22 06:44:18;;;;;;;35.37;19.57;;;0.90;99.90;;;;;;4986082;28;21173;-75
2023/01/22 06:46:45;;;;;;;38.23;19.80;;;0.90;99.90;;;;;;4985308;28;20466;-72
2023/01/22 06:49:13;;;;;;;37.97;20.33;;;0.90;99.90;;;;;;4985631;28;21283;-74
2023/01/22 06:51:40;;;;;;;40.27;21.00;;;1.00;99.90;;;;;;4986415;28;20482;-75
2023/01/22 06:54:07;;;;;;;40.00;20.33;;;1.00;99.90;;;;;;4985477;28;21170;-75
2023/01/22 06:56:34;;;;;;;35.87;20.87;;;1.00;99.90;;;;;;4985397;28;20463;-71
2023/01/22 06:59:01;;;;;;;39.57;19.90;;;1.00;99.90;;;;;;4986463;28;20450;-74
2023/01/22 07:01:29;;;;;;;36.87;19.53;;;1.00;99.90;;;;;;4985600;28;20510;-75
2023/01/22 07:03:56;;;;;;;36.57;18.33;;;1.00;99.90;;;;;;4985986;28;20459;-74
2023/01/22 07:06:23;;;;;;;42.00;18.77;;;1.00;99.90;;;;;;4985337;28;20451;-75
2023/01/22 07:08:50;;;;;;;41.73;19.13;;;1.00;99.90;;;;;;4985835;28;20463;-75
2023/01/22 07:11:17;;;;;;;44.00;21.13;;;1.00;99.90;;;;;;4985909;28;20611;-73
2023/01/22 07:13:44;;;;;;;41.37;20.07;;;1.00;99.90;;;;;;4985997;28;20471;-72
2023/01/22 07:16:11;;;;;;;38.03;19.20;;;1.00;99.90;;;;;;4985428;28;20462;-72
2023/01/22 07:18:39;;;;;;;38.33;19.57;;;1.00;99.90;;;;;;4986303;28;20459;-72
2023/01/22 07:21:06;;;;;;;43.57;21.20;;;1.00;99.90;;;;;;4985711;28;21010;-72
2023/01/22 07:23:33;;;;;;;41.67;21.13;;;1.00;99.90;;;;;;4985927;28;20842;-75
2023/01/22 07:26:00;;;;;;;40.77;20.30;;;0.90;99.90;;;;;;4985479;28;20459;-75
2023/01/22 07:28:27;;;;;;;40.90;22.00;;;0.90;99.90;;;;;;4986111;28;20520;-74
2023/01/22 07:30:55;;;;;;;41.97;20.87;;;1.00;99.90;;;;;;4986021;28;20863;-74
2023/01/22 07:33:22;;;;;;;44.30;22.80;;;1.00;99.90;;;;;;4985927;28;20473;-74
2023/01/22 07:35:55;;;;;;;42.87;21.23;;;1.00;99.90;;;;;;4986057;28;20494;-73
2023/01/22 07:38:22;;;;;;;44.60;21.73;;;1.00;99.90;;;;;;4985851;28;20455;-73
2023/01/22 07:40:49;;;;;;;42.33;21.10;;;1.00;99.90;;;;;;4987385;28;20479;-73
2023/01/22 07:43:16;;;;;;;44.33;21.83;;;0.90;99.90;;;;;;4989287;28;20494;-73
2023/01/22 07:45:43;;;;;;;46.20;21.23;;;0.90;99.90;;;;;;4989583;28;20557;-74
2023/01/22 07:48:10;;;;;;;43.80;21.87;;;0.90;99.90;;;;;;4988078;28;20454;-75
2023/01/22 07:50:39;;;;;;;49.00;23.23;;;0.90;99.90;;;;;;4989341;28;20479;-74
2023/01/22 07:53:07;;;;;;;51.15;27.40;;;0.90;99.90;;;;;;4988531;28;20428;-75
2023/01/22 07:55:34;;;;;;;46.37;23.73;;;1.10;99.90;;;;;;4989422;28;20487;-74
2023/01/22 07:58:03;;;;;;;46.87;23.00;;;1.30;99.90;;;;;;4988075;28;20447;-74
2023/01/22 08:00:30;;;;;;;43.77;22.10;;;1.30;99.90;;;;;;4988630;28;20494;-75
2023/01/22 08:02:57;;;;;;;45.90;23.00;;;1.40;99.90;;;;;;4988758;28;20927;-75
2023/01/22 08:05:24;;;;;;;44.80;23.63;;;1.40;99.90;;;;;;4988595;28;20455;-74
2023/01/22 08:07:51;;;;;;;47.83;22.23;;;1.40;99.90;;;;;;4988230;28;20455;-74
2023/01/22 08:10:19;;;;;;;45.40;21.87;;;1.30;99.90;;;;;;4988603;28;20474;-74
2023/01/22 08:12:47;;;;;;;46.63;21.53;;;1.30;99.90;;;;;;4988479;28;20455;-75
2023/01/22 08:15:14;;;;;;;50.97;21.13;;;1.40;99.90;;;;;;4989015;28;20460;-74
2023/01/22 08:17:41;;;;;;;56.60;23.07;;;1.40;99.90;;;;;;4987836;28;20466;-75
2023/01/22 08:20:10;;;;;;;50.37;22.13;;;1.40;99.90;;;;;;4988557;28;20465;-74
2023/01/22 08:22:37;;;;;;;51.63;21.90;;;1.40;99.90;;;;;;4988411;28;20495;-74
2023/01/22 08:25:04;;;;;;;49.80;24.27;;;1.40;99.90;;;;;;4988687;28;20449;-75
2023/01/22 08:27:34;;;;;;;39.80;21.87;;;1.50;99.90;;;;;;4987109;28;20455;-75
2023/01/22 08:30:01;;;;;;;47.30;23.30;;;1.40;99.90;;;;;;4988540;28;20440;-73
2023/01/22 08:32:28;;;;;;;48.47;24.40;;;1.50;99.90;;;;;;4988506;28;20474;-75
2023/01/22 08:34:55;;;;;;;49.30;23.30;;;1.50;99.90;;;;;;4987470;28;20786;-74
2023/01/22 08:37:22;;;;;;;46.73;22.60;;;1.60;99.90;;;;;;4987449;28;20456;-75
2023/01/22 08:39:49;;;;;;;48.93;22.80;;;1.60;99.90;;;;;;4988429;28;20462;-74
2023/01/22 08:42:16;;;;;;;44.23;21.47;;;1.60;99.90;;;;;;4988342;28;20869;-74
2023/01/22 08:44:44;;;;;;;46.07;23.17;;;1.60;99.90;;;;;;4988253;28;20452;-74
2023/01/22 08:47:11;;;;;;;41.10;22.37;;;1.50;99.90;;;;;;4987557;28;20492;-75
2023/01/22 08:49:37;;;;;;;41.73;22.57;;;1.50;99.90;;;;;;4988377;28;20518;-75
2023/01/22 08:52:05;;;;;;;49.53;24.53;;;1.40;99.90;;;;;;4986628;28;20487;-75
2023/01/22 08:54:31;;;;;;;46.50;22.53;;;1.40;99.90;;;;;;4987946;28;20451;-74
2023/01/22 08:56:58;;;;;;;50.30;24.87;;;1.50;99.90;;;;;;4987262;28;20455;-74
2023/01/22 08:59:25;;;;;;;52.33;29.20;;;1.40;99.90;;;;;;4986118;28;20444;-74
2023/01/22 09:01:53;;;;;;;45.17;23.83;;;1.80;99.90;;;;;;4986313;28;20291;-73
2023/01/22 09:04:20;;;;;;;47.50;22.47;;;1.80;99.90;;;;;;4987737;28;20491;-73
2023/01/22 09:06:47;;;;;;;44.70;22.47;;;1.80;99.90;;;;;;4987312;28;20470;-75
2023/01/22 09:09:14;;;;;;;45.70;21.63;;;1.70;99.90;;;;;;4987739;28;20452;-75
2023/01/22 09:11:41;;;;;;;43.70;20.17;;;1.70;99.90;;;;;;4988242;28;20487;-75
2023/01/22 09:14:08;;;;;;;41.43;21.53;;;1.70;99.90;;;;;;4986926;28;20870;-76
2023/01/22 09:16:36;;;;;;;43.33;20.23;;;1.80;99.90;;;;;;4986745;28;20487;-75
2023/01/22 09:19:04;;;;;;;43.60;21.00;;;1.80;99.90;;;;;;4987295;28;20456;-75
2023/01/22 09:21:32;;;;;;;39.00;20.77;;;1.80;99.90;;;;;;4987123;28;20471;-75
2023/01/22 09:23:59;;;;;;;36.87;18.03;;;1.80;99.90;;;;;;4987314;28;20491;-76
2023/01/22 09:26:26;;;;;;;38.43;20.17;;;1.80;99.90;;;;;;4986428;28;20579;-75
2023/01/22 09:28:53;;;;;;;42.80;20.43;;;1.90;99.90;;;;;;4986583;28;20459;-75
2023/01/22 09:31:19;;;;;;;40.20;20.30;;;1.90;99.90;;;;;;4986262;28;21015;-76
2023/01/22 09:33:46;;;;;;;44.10;21.50;;;1.90;99.90;;;;;;4987060;28;20447;-75
2023/01/22 09:36:16;;;;;;;40.73;22.00;;;1.80;99.90;;;;;;4986372;28;20456;-75
2023/01/22 09:38:43;;;;;;;39.47;19.80;;;1.80;99.90;;;;;;4986469;28;20479;-75
2023/01/22 09:41:17;;;;;;;40.03;19.27;;;1.70;99.90;;;;;;4986124;28;20482;-75
2023/01/22 09:43:50;;;;;;;35.30;18.40;;;1.60;99.90;;;;;;4986293;28;20487;-75
2023/01/22 09:46:23;;;;;;;36.37;17.47;;;1.60;99.90;;;;;;4985078;28;20464;-75
2023/01/22 09:48:56;;;;;;;37.23;18.43;;;1.50;99.90;;;;;;4985922;28;21003;-75
2023/01/22 09:51:24;;;;;;;40.13;17.50;;;1.40;99.90;;;;;;4986369;28;20475;-75
2023/01/22 09:53:56;;;;;;;34.10;18.13;;;1.40;99.90;;;;;;4986336;28;20960;-75
2023/01/22 09:56:29;;;;;;;36.07;17.40;;;1.40;99.90;;;;;;4985831;28;20443;-75
2023/01/22 09:58:58;;;;;;;34.90;17.40;;;1.40;99.90;;;;;;4985919;28;20494;-75
2023/01/22 10:01:26;;;;;;;32.70;17.37;;;1.40;99.90;;;;;;4985530;28;20492;-75
2023/01/22 10:03:57;;;;;;;36.40;17.93;;;1.40;99.90;;;;;;4985904;28;20499;-75
2023/01/22 10:06:27;;;;;;;33.10;16.90;;;1.50;99.90;;;;;;4985281;28;20464;-75
2023/01/22 10:09:02;;;;;;;33.60;17.97;;;1.50;99.90;;;;;;4986253;28;20460;-75
2023/01/22 10:11:29;;;;;;;31.93;16.70;;;1.60;99.90;;;;;;4986130;28;20475;-75
2023/01/22 10:13:58;;;;;;;36.77;18.67;;;1.60;99.90;;;;;;4985639;28;21023;-74
2023/01/22 10:16:25;;;;;;;34.90;18.73;;;1.60;99.90;;;;;;4985114;28;21516;-74
2023/01/22 10:18:55;;;;;;;35.93;17.77;;;1.60;99.90;;;;;;4985792;28;20458;-74
2023/01/22 10:21:26;;;;;;;44.20;19.80;;;1.70;99.90;;;;;;4986217;28;20494;-74
2023/01/22 10:23:56;;;;;;;39.53;20.13;;;1.70;99.90;;;;;;4986293;28;20480;-75
2023/01/22 10:26:33;;;;;;;39.03;19.33;;;1.70;99.90;;;;;;4985808;28;20452;-74
2023/01/22 10:29:06;;;;;;;40.80;20.30;;;1.70;99.90;;;;;;4985970;28;20440;-74
2023/01/22 10:31:35;;;;;;;40.00;20.47;;;1.80;99.90;;;;;;4986220;28;20991;-74
2023/01/22 10:34:04;;;;;;;44.37;21.17;;;1.80;99.90;;;;;;4986532;28;20959;-75
2023/01/22 10:36:33;;;;;;;41.23;20.83;;;1.80;99.90;;;;;;4985800;28;20481;-74
2023/01/22 10:39:05;;;;;;;39.90;20.53;;;1.80;99.90;;;;;;4985944;28;20456;-74
2023/01/22 10:41:32;;;;;;;44.23;21.43;;;1.80;99.90;;;;;;4986791;28;21287;-74
2023/01/22 10:44:09;;;;;;;43.27;21.70;;;1.90;99.90;;;;;;4986251;28;20494;-74
2023/01/22 10:46:36;;;;;;;39.30;21.77;;;1.90;99.90;;;;;;4985209;28;20459;-74
2023/01/22 10:49:07;;;;;;;42.10;20.97;;;2.00;99.90;;;;;;4985935;28;21149;-74
2023/01/22 10:51:38;;;;;;;39.87;20.47;;;2.00;99.90;;;;;;4985794;28;20475;-74
2023/01/22 10:54:18;;;;;;;40.97;21.13;;;2.00;99.90;;;;;;4986297;28;20452;-74
2023/01/22 10:56:45;;;;;;;44.33;22.27;;;1.90;99.90;;;;;;4985688;28;20438;-74
2023/01/22 10:59:23;;;;;;;45.20;22.90;;;1.80;99.90;;;;;;4986077;28;20462;-74
2023/01/22 11:01:57;;;;;;;45.60;20.77;;;1.80;99.90;;;;;;4985788;28;20490;-74
2023/01/22 11:04:25;;;;;;;42.60;21.93;;;1.80;99.90;;;;;;4986667;28;20498;-74
2023/01/22 11:06:58;;;;;;;44.67;22.93;;;1.90;99.90;;;;;;4985048;28;21382;-74
2023/01/22 11:09:34;;;;;;;44.33;23.00;;;1.90;99.90;;;;;;4985893;28;20455;-74
2023/01/22 11:12:09;;;;;;;45.33;23.00;;;1.90;99.90;;;;;;4985596;28;21066;-74
2023/01/22 11:14:38;;;;;;;45.07;21.70;;;2.00;99.90;;;;;;4986283;28;20440;-74
2023/01/22 11:17:13;;;;;;;37.47;19.43;;;2.00;99.90;;;;;;4988944;28;20451;-74
2023/01/22 11:19:45;;;;;;;33.17;18.77;;;2.00;99.90;;;;;;4989611;28;20928;-75
2023/01/22 11:22:21;;;;;;;36.13;18.50;;;1.90;99.90;;;;;;4989883;28;20501;-74
2023/01/22 11:24:48;;;;;;;42.80;19.83;;;1.90;99.90;;;;;;4989393;28;20486;-74
2023/01/22 11:27:37;;;;;;;38.47;20.67;;;1.80;99.90;;;;;;4989094;28;20450;-74
2023/01/22 11:30:32;;;;;;;52.70;26.70;;;1.80;99.90;;;;;;4989737;28;20458;-74
2023/01/22 11:33:06;;;;;;;41.40;20.97;;;1.80;99.90;;;;;;4976690;28;20463;-74
2023/01/22 11:35:40;;;;;;;35.00;18.50;;;1.80;99.90;;;;;;4989521;28;20579;-74
2023/01/22 11:38:18;;;;;;;35.70;19.43;;;1.80;99.90;;;;;;4988894;28;20462;-75
2023/01/22 11:41:01;;;;;;;42.80;19.03;;;1.80;99.90;;;;;;4989375;28;20475;-75
2023/01/22 11:43:46;;;;;;;41.90;22.47;;;1.80;99.90;;;;;;4988998;28;20495;-74
2023/01/22 11:46:27;;;;;;;42.13;22.77;;;1.80;99.90;;;;;;4988701;28;20451;-74
2023/01/22 11:49:05;;;;;;;38.83;20.60;;;1.80;99.90;;;;;;4989419;28;20462;-74
2023/01/22 11:51:38;;;;;;;39.03;19.50;;;1.80;99.90;;;;;;4989029;28;20474;-74
2023/01/22 11:54:32;;;;;;;34.03;19.77;;;1.90;99.90;;;;;;4989800;28;20531;-64
2023/01/22 11:57:11;;;;;;;34.30;19.00;;;1.90;99.90;;;;;;4989443;28;20456;-64
2023/01/22 12:00:01;;;;;;;34.50;19.90;;;1.90;99.90;;;;;;4989402;28;20462;-64
2023/01/22 12:02:46;;;;;;;36.27;18.93;;;1.90;99.90;;;;;;4986296;28;20487;-64
2023/01/22 12:05:21;;;;;;;39.03;20.57;;;2.00;99.90;;;;;;4988962;28;20485;-64
2023/01/22 12:08:13;;;;;;;42.40;21.37;;;1.90;99.90;;;;;;4987602;28;20469;-64
2023/01/22 12:11:34;;;;;;;34.83;17.50;;;2.10;99.90;;;;;;4988661;28;21055;-75
2023/01/22 12:14:18;;;;;;;38.88;23.48;;;2.10;99.90;;;;;;4922859;29;21016;-75
2023/01/22 12:16:52;;;;;;;37.23;21.50;;;2.50;99.90;;;;;;4980189;28;20212;-75
2023/01/22 12:19:41;;;;;;;32.13;19.90;;;2.60;99.90;;;;;;4988595;28;20447;-74
2023/01/22 12:22:21;;;;;;;32.43;17.60;;;2.60;99.90;;;;;;4988735;28;20525;-75
2023/01/22 12:24:53;;;;;;;33.23;17.47;;;2.40;99.90;;;;;;4988183;28;20490;-75
2023/01/22 12:27:25;;;;;;;34.57;18.60;;;2.40;99.90;;;;;;4987470;28;20436;-75
2023/01/22 12:30:02;;;;;;;36.43;19.93;;;2.30;99.90;;;;;;4988620;28;20463;-75
2023/01/22 12:32:30;;;;;;;36.40;20.03;;;2.30;99.90;;;;;;4989056;28;20472;-75
2023/01/22 12:35:03;;;;;;;40.70;20.60;;;2.20;99.90;;;;;;4987949;28;20459;-75
2023/01/22 12:37:37;;;;;;;35.80;19.97;;;2.20;99.90;;;;;;4987517;28;20899;-75
2023/01/22 12:40:28;;;;;;;33.37;18.53;;;2.20;99.90;;;;;;4987989;28;20444;-74
2023/01/22 12:43:00;;;;;;;41.70;19.23;;;2.20;99.90;;;;;;4988197;28;20467;-74
2023/01/22 12:45:38;;;;;;;37.00;22.23;;;2.10;99.90;;;;;;4987991;28;20499;-75
2023/01/22 12:48:16;;;;;;;37.37;21.77;;;2.10;99.90;;;;;;4987410;28;20818;-75
2023/01/22 12:50:49;;;;;;;39.60;21.93;;;2.20;99.90;;;;;;4987912;28;20486;-74
2023/01/22 12:53:23;;;;;;;38.60;21.20;;;2.20;99.90;;;;;;4988016;28;21010;-74
2023/01/22 12:55:59;;;;;;;36.93;20.47;;;2.30;99.90;;;;;;4987776;28;20455;-74
2023/01/22 12:58:29;;;;;;;54.17;29.43;;;2.30;99.90;;;;;;4986695;28;20458;-74
2023/01/22 13:01:06;;;;;;;42.30;22.13;;;2.30;99.90;;;;;;4987666;28;20589;-75
2023/01/22 13:03:35;;;;;;;30.80;17.60;;;2.40;99.90;;;;;;4987433;28;20484;-74
2023/01/22 13:06:17;;;;;;;32.10;14.60;;;2.50;99.90;;;;;;4987355;28;20455;-75
2023/01/22 13:08:45;;;;;;;28.33;15.83;;;2.60;99.90;;;;;;4985320;28;20864;-74
2023/01/22 13:11:13;;;;;;;29.47;14.83;;;2.60;99.90;;;;;;4987582;28;20475;-76
2023/01/22 13:13:44;;;;;;;25.40;14.77;;;2.70;99.90;;;;;;4986904;28;20491;-76
2023/01/22 13:16:21;;;;;;;24.10;13.70;;;2.70;99.90;;;;;;4986105;28;20464;-74
2023/01/22 13:18:50;;;;;;;19.33;12.70;;;2.80;99.90;;;;;;4987779;28;20454;-75
2023/01/22 13:21:23;;;;;;;21.90;12.40;;;2.80;99.90;;;;;;4987896;28;20922;-75
2023/01/22 13:23:50;;;;;;;19.97;11.90;;;2.90;99.90;;;;;;4986981;28;20490;-73
2023/01/22 13:26:19;;;;;;;18.90;11.80;;;2.90;99.90;;;;;;4985282;28;20458;-75
2023/01/22 13:28:54;;;;;;;19.60;12.43;;;2.90;99.90;;;;;;4986391;28;20458;-72
2023/01/22 13:31:23;;;;;;;19.03;12.90;;;2.90;99.90;;;;;;4985865;28;20475;-72
2023/01/22 13:33:56;;;;;;;23.13;13.07;;;3.00;99.90;;;;;;4985771;28;20482;-72
2023/01/22 13:36:23;;;;;;;18.00;11.37;;;3.00;99.90;;;;;;4985586;28;20464;-72
2023/01/22 13:38:54;;;;;;;19.53;11.60;;;3.00;99.90;;;;;;4984974;28;20944;-71
2023/01/22 13:41:31;;;;;;;17.70;9.93;;;3.00;99.90;;;;;;4986018;28;20479;-72
2023/01/22 13:43:58;;;;;;;15.10;9.80;;;3.00;99.90;;;;;;4982562;28;20496;-72
2023/01/22 13:46:27;;;;;;;17.73;10.70;;;3.10;99.90;;;;;;4965535;28;20447;-72
2023/01/22 13:49:06;;;;;;;15.93;10.47;;;3.10;99.90;;;;;;4966620;28;20468;-72
2023/01/22 13:51:34;;;;;;;16.07;11.67;;;3.10;99.90;;;;;;4966199;28;20484;-72
2023/01/22 13:54:03;;;;;;;16.90;10.83;;;3.10;99.90;;;;;;4966691;28;20945;-72
2023/01/22 13:56:30;;;;;;;15.30;9.67;;;3.20;99.90;;;;;;4965629;28;20467;-72
2023/01/22 13:59:15;;;;;;;14.80;9.37;;;3.20;99.90;;;;;;4965797;28;20856;-73
2023/01/22 14:01:43;;;;;;;15.00;9.50;;;3.20;99.90;;;;;;4966104;28;20487;-73
2023/01/22 14:04:36;;;;;;;13.60;8.93;;;3.20;99.90;;;;;;4966098;28;20491;-73
2023/01/22 14:07:04;;;;;;;17.63;9.50;;;3.20;99.90;;;;;;4965592;28;20568;-74
2023/01/22 14:09:33;;;;;;;12.90;8.87;;;3.20;99.90;;;;;;4965687;28;20456;-74
2023/01/22 14:12:01;;;;;;;14.60;8.63;;;3.20;99.90;;;;;;4965981;28;20488;-74
2023/01/22 14:14:39;;;;;;;14.80;8.93;;;3.20;99.90;;;;;;4966308;28;20480;-72
2023/01/22 14:17:07;;;;;;;9.80;7.77;;;3.30;99.90;;;;;;4965586;28;20942;-72
2023/01/22 14:19:34;;;;;;;11.27;8.60;;;3.20;99.90;;;;;;4966851;28;20452;-74
2023/01/22 14:22:01;;;;;;;12.47;8.60;;;3.20;99.90;;;;;;4967370;28;20482;-73
2023/01/22 14:24:29;;;;;;;12.80;8.60;;;3.20;99.90;;;;;;4966513;28;20522;-73
2023/01/22 14:26:56;;;;;;;11.60;8.27;;;3.20;99.90;;;;;;4966303;28;20457;-72
2023/01/22 14:29:23;;;;;;;11.43;8.40;;;3.20;99.90;;;;;;4966745;28;20459;-73
2023/01/22 14:31:50;;;;;;;10.93;7.87;;;3.30;99.90;;;;;;4966563;28;20483;-73
2023/01/22 14:34:18;;;;;;;11.23;7.30;;;3.30;99.90;;;;;;4966483;28;20455;-73
2023/01/22 14:36:47;;;;;;;10.80;8.00;;;3.30;99.90;;;;;;4966273;28;20456;-74
2023/01/22 14:39:14;;;;;;;10.73;8.23;;;3.30;99.90;;;;;;4966821;28;20456;-73
2023/01/22 14:41:41;;;;;;;10.83;7.30;;;3.30;99.90;;;;;;4966798;28;20561;-73
2023/01/22 14:44:08;;;;;;;10.37;7.83;;;3.30;99.90;;;;;;4966305;28;20826;-73
2023/01/22 14:46:36;;;;;;;12.17;8.40;;;3.40;99.90;;;;;;4966721;28;20459;-73
2023/01/22 14:49:04;;;;;;;11.73;7.70;;;3.40;99.90;;;;;;4966674;28;20562;-72
2023/01/22 14:51:32;;;;;;;11.97;7.83;;;3.40;99.90;;;;;;4970754;28;20488;-73
2023/01/22 14:53:59;;;;;;;11.57;7.60;;;3.40;99.90;;;;;;4970714;28;20479;-73
2023/01/22 14:56:26;;;;;;;10.97;7.37;;;3.50;99.90;;;;;;4969572;28;20548;-73
2023/01/22 14:58:53;;;;;;;10.50;7.37;;;3.50;99.90;;;;;;4970810;28;20462;-73
2023/01/22 15:01:21;;;;;;;10.80;7.13;;;3.50;99.90;;;;;;4970356;28;20856;-72
2023/01/22 15:03:49;;;;;;;10.43;7.87;;;3.50;99.90;;;;;;4976153;28;20457;-73
2023/01/22 15:06:16;;;;;;;11.70;8.23;;;3.50;99.90;;;;;;4988688;28;21023;-73
2023/01/22 15:08:44;;;;;;;12.20;8.50;;;3.50;99.90;;;;;;4989942;28;20648;-72
2023/01/22 15:11:11;;;;;;;13.00;8.20;;;3.50;99.90;;;;;;4989771;28;20475;-73
2023/01/22 15:13:38;;;;;;;12.10;8.77;;;3.50;99.90;;;;;;4989856;28;20455;-73
2023/01/22 15:16:06;;;;;;;10.53;7.60;;;3.50;99.90;;;;;;4988877;28;20452;-72
2023/01/22 15:18:33;;;;;;;10.30;7.60;;;3.50;99.90;;;;;;4989288;28;20447;-73
2023/01/22 15:21:00;;;;;;;9.33;7.10;;;3.50;99.90;;;;;;4989789;28;20486;-72
2023/01/22 15:23:27;;;;;;;11.17;7.87;;;3.50;99.90;;;;;;4989236;28;20463;-73
2023/01/22 15:25:59;;;;;;;10.70;8.00;;;3.50;99.90;;;;;;4988875;28;20490;-74
2023/01/22 15:28:26;;;;;;;13.00;8.50;;;3.60;99.90;;;;;;4989228;28;20436;-73
2023/01/22 15:30:55;;;;;;;13.27;8.97;;;3.60;99.90;;;;;;4989182;28;20481;-74
2023/01/22 15:33:22;;;;;;;14.17;8.90;;;3.60;99.90;;;;;;4989430;28;20541;-73
2023/01/22 15:35:49;;;;;;;12.33;8.33;;;3.60;99.90;;;;;;4989091;28;21331;-73
2023/01/22 15:38:16;;;;;;;13.47;8.57;;;3.50;99.90;;;;;;4988912;28;20452;-73
2023/01/22 15:40:43;;;;;;;16.10;12.13;;;3.60;99.90;;;;;;4988361;28;20474;-73
2023/01/22 15:43:11;;;;;;;18.10;10.93;;;3.60;99.90;;;;;;4989252;28;20477;-72
2023/01/22 15:45:38;;;;;;;16.00;10.43;;;3.60;99.90;;;;;;4988709;28;20487;-72
2023/01/22 15:48:05;;;;;;;14.27;10.30;;;3.60;99.90;;;;;;4988282;28;20459;-72
2023/01/22 15:50:32;;;;;;;13.70;8.53;;;3.60;99.90;;;;;;4988529;28;20458;-73
2023/01/22 15:52:59;;;;;;;22.10;13.17;;;3.60;99.90;;;;;;4989102;28;20459;-73
2023/01/22 15:55:26;;;;;;;21.70;13.03;;;3.60;99.90;;;;;;4988399;28;20478;-72
2023/01/22 15:57:53;;;;;;;14.97;10.07;;;3.50;99.90;;;;;;4988086;28;20486;-72
2023/01/22 16:00:22;;;;;;;13.20;8.20;;;3.50;99.90;;;;;;4987239;28;20465;-72
2023/01/22 16:02:49;;;;;;;14.70;9.67;;;3.50;99.90;;;;;;4988002;28;20459;-72
2023/01/22 16:05:16;;;;;;;15.70;10.40;;;3.50;99.90;;;;;;4988586;28;20494;-72
2023/01/22 16:07:43;;;;;;;11.43;8.43;;;3.50;99.90;;;;;;4988070;28;20543;-72
2023/01/22 16:10:11;;;;;;;16.27;10.13;;;3.50;99.90;;;;;;4988059;28;20455;-72
2023/01/22 16:12:37;;;;;;;12.23;8.87;;;3.50;99.90;;;;;;4988663;28;20475;-72
2023/01/22 16:15:05;;;;;;;11.07;8.53;;;3.50;99.90;;;;;;4988800;28;20486;-72
2023/01/22 16:17:33;;;;;;;12.70;9.30;;;3.50;99.90;;;;;;4987927;28;20456;-72
2023/01/22 16:20:04;;;;;;;11.43;8.83;;;3.50;99.90;;;;;;4987439;28;20452;-72
2023/01/22 16:22:30;;;;;;;14.70;9.97;;;3.40;99.90;;;;;;4987844;28;20537;-72
2023/01/22 16:24:57;;;;;;;12.10;8.87;;;3.40;99.90;;;;;;4987472;28;21033;-72
2023/01/22 16:27:24;;;;;;;11.77;9.17;;;3.40;99.90;;;;;;4986778;28;20464;-72
2023/01/22 16:29:51;;;;;;;14.50;9.70;;;3.40;99.90;;;;;;4987208;28;20452;-72
2023/01/22 16:32:17;;;;;;;12.90;8.30;;;3.40;99.90;;;;;;4987994;28;20480;-72
2023/01/22 16:34:46;;;;;;;12.33;9.00;;;3.40;99.90;;;;;;4987392;28;21313;-72
2023/01/22 16:37:12;;;;;;;11.10;7.70;;;3.40;99.90;;;;;;4987819;28;20546;-74
2023/01/22 16:39:39;;;;;;;11.17;8.83;;;3.30;99.90;;;;;;4988065;28;21009;-75
2023/01/22 16:42:06;;;;;;;12.10;8.80;;;3.30;99.90;;;;;;4987999;28;20480;-74
2023/01/22 16:44:33;;;;;;;13.10;9.20;;;3.30;99.90;;;;;;4987941;28;20451;-74
2023/01/22 16:47:00;;;;;;;12.97;9.20;;;3.30;99.90;;;;;;4987378;28;20458;-74
2023/01/22 16:49:29;;;;;;;12.10;8.73;;;3.30;99.90;;;;;;4987251;28;20555;-75
2023/01/22 16:51:59;;;;;;;17.33;11.00;;;3.30;99.90;;;;;;4987201;28;20476;-75
2023/01/22 16:54:27;;;;;;;14.73;10.90;;;3.30;99.90;;;;;;4987798;28;20455;-75
2023/01/22 16:56:54;;;;;;;16.10;11.20;;;3.30;99.90;;;;;;4987255;28;20451;-75
2023/01/22 16:59:21;;;;;;;15.70;10.50;;;3.20;99.90;;;;;;4987889;28;20456;-77
2023/01/22 17:01:48;;;;;;;17.40;12.70;;;3.30;99.90;;;;;;4988960;28;20578;-77
2023/01/22 17:04:15;;;;;;;18.50;11.87;;;3.30;99.90;;;;;;4988688;28;20982;-76
2023/01/22 17:06:44;;;;;;;12.97;10.60;;;3.20;99.90;;;;;;4988218;28;20537;-75
2023/01/22 17:09:17;;;;;;;14.17;10.30;;;3.20;99.90;;;;;;4988587;28;20459;-76
2023/01/22 17:11:45;;;;;;;15.40;10.90;;;3.20;99.90;;;;;;4988376;28;20917;-75
2023/01/22 17:14:13;;;;;;;13.00;10.00;;;3.20;99.90;;;;;;4987529;28;20477;-75
2023/01/22 17:16:39;;;;;;;14.07;10.37;;;3.20;99.90;;;;;;4988176;28;20455;-75
2023/01/22 17:19:06;;;;;;;17.10;11.90;;;3.20;99.90;;;;;;4988650;28;20635;-76
2023/01/22 17:21:33;;;;;;;14.80;10.43;;;3.20;99.90;;;;;;4968233;28;20483;-75
2023/01/22 17:24:00;;;;;;;15.83;10.47;;;3.20;99.90;;;;;;4968423;28;20967;-75
2023/01/22 17:26:28;;;;;;;13.50;9.97;;;3.20;99.90;;;;;;4983942;28;20526;-78
2023/01/22 17:28:55;;;;;;;13.40;9.93;;;3.20;99.90;;;;;;4987571;28;20447;-74
2023/01/22 17:31:23;;;;;;;21.43;10.43;;;3.20;99.90;;;;;;4986867;28;20477;-75
2023/01/22 17:33:54;;;;;;;14.60;10.00;;;3.20;99.90;;;;;;4987087;28;20583;-76
2023/01/22 17:36:24;;;;;;;13.73;9.70;;;3.20;99.90;;;;;;4984199;28;20518;-75
2023/01/22 17:38:55;;;;;;;12.77;9.17;;;3.20;99.90;;;;;;4986374;28;20471;-75
2023/01/22 17:41:24;;;;;;;13.93;9.90;;;3.30;99.90;;;;;;4986036;28;20475;-76
2023/01/22 17:43:54;;;;;;;12.60;8.40;;;3.20;99.90;;;;;;4987213;28;20460;-75
2023/01/22 17:46:24;;;;;;;17.40;11.03;;;3.20;99.90;;;;;;4986782;28;21082;-75
2023/01/22 17:48:51;;;;;;;16.93;10.30;;;3.20;99.90;;;;;;4987105;28;20470;-75
2023/01/22 17:51:20;;;;;;;14.83;10.37;;;3.20;99.90;;;;;;4986773;28;20482;-76